Time;durP1;ratioP1;P1;durP2;ratioP2;P2;SDS_P1;SDS_P2;PMS_P1;PMS_P2;Temp;Humidity;BMP_temperature;BMP_pressure;BME280_temperature;BME280_humidity;BME280_pressure;Samples;Min_cycle;Max_cycle;Signal;HPM_P1;HPM_P2
2023/03/01 00:04:47;;;;;;;87.60;45.30;;;;;;;-4.98;74.64;101225.70;218459;1256;139730;-61
2023/03/01 00:09:50;;;;;;;80.50;37.10;;;;;;;-5.07;74.91;101222.95;218683;1256;140707;-61
2023/03/01 00:14:52;;;;;;;83.90;37.30;;;;;;;-5.16;74.87;101224.02;218052;1260;139810;-65
2023/03/01 00:19:54;;;;;;;65.80;31.70;;;;;;;-5.14;74.90;101231.54;218086;1257;140085;-63
2023/03/01 00:24:57;;;;;;;72.60;39.60;;;;;;;-5.08;75.31;101237.24;217892;1256;140262;-64
2023/03/01 00:29:59;;;;;;;95.40;44.70;;;;;;;-5.13;75.06;101232.70;217583;1257;139300;-63
2023/03/01 00:35:01;;;;;;;87.90;40.70;;;;;;;-5.24;74.86;101227.33;217860;1256;140729;-62
2023/03/01 00:40:05;;;;;;;99.50;47.90;;;;;;;-5.32;75.18;101220.96;219193;1257;140961;-60
2023/03/01 00:45:09;;;;;;;112.10;47.20;;;;;;;-5.39;75.34;101212.86;219508;1256;143010;-60
2023/03/01 00:50:12;;;;;;;111.90;48.90;;;;;;;-5.43;75.41;101203.08;217583;1256;140895;-62
2023/03/01 00:55:16;;;;;;;96.10;42.50;;;;;;;-5.41;75.24;101198.98;219183;1260;141307;-61
2023/03/01 01:00:19;;;;;;;119.20;51.20;;;;;;;-5.33;75.45;101205.24;218355;1256;140099;-64
2023/03/01 01:05:23;;;;;;;122.50;58.40;;;;;;;-5.27;75.59;101209.69;219228;1257;139888;-64
2023/03/01 01:10:26;;;;;;;105.90;49.60;;;;;;;-5.31;75.46;101215.66;220305;1259;139911;-65
2023/03/01 01:15:33;;;;;;;115.90;55.40;;;;;;;-5.36;75.45;101213.59;218252;1256;140685;-59
2023/03/01 01:20:36;;;;;;;111.00;54.60;;;;;;;-5.45;75.59;101217.56;220334;1257;140902;-61
2023/03/01 01:25:38;;;;;;;97.90;49.40;;;;;;;-5.53;75.41;101211.17;219068;1256;140359;-62
2023/03/01 01:30:42;;;;;;;90.60;47.70;;;;;;;-5.60;75.63;101206.25;219424;1256;140636;-61
2023/03/01 01:35:45;;;;;;;106.00;52.20;;;;;;;-5.61;75.20;101203.38;218904;1256;140499;-63
2023/03/01 01:40:49;;;;;;;114.10;49.10;;;;;;;-5.56;75.60;101203.20;217892;1256;141578;-63
2023/03/01 01:46:03;;;;;;;104.10;51.30;;;;;;;-5.49;75.79;101194.27;218566;1259;140016;-61
2023/03/01 01:51:12;;;;;;;100.40;54.00;;;;;;;-5.56;75.53;101178.61;218496;1257;139714;-61
2023/03/01 01:56:18;;;;;;;117.10;56.40;;;;;;;-5.65;75.58;101169.67;218451;1257;150885;-61
2023/03/01 02:01:22;;;;;;;107.40;54.60;;;;;;;-5.73;75.78;101169.14;217754;1257;139953;-62
2023/03/01 02:06:34;;;;;;;94.20;43.80;;;;;;;-5.79;75.92;101165.50;219514;1256;140140;-65
2023/03/01 02:11:38;;;;;;;92.00;45.10;;;;;;;-5.85;75.77;101162.62;218649;1256;139562;-63
2023/03/01 02:16:42;;;;;;;99.00;47.50;;;;;;;-5.91;75.93;101148.98;218157;1257;139874;-62
2023/03/01 02:21:53;;;;;;;105.50;49.20;;;;;;;-5.91;76.07;101131.52;218463;1256;207592;-61
2023/03/01 02:26:57;;;;;;;95.90;44.90;;;;;;;-5.89;76.01;101122.86;218099;1256;140445;-62
2023/03/01 02:32:03;;;;;;;97.30;42.20;;;;;;;-5.82;76.34;101126.09;219139;1256;140083;-61
2023/03/01 02:37:12;;;;;;;68.70;33.90;;;;;;;-5.81;76.36;101115.94;218427;1259;141510;-62
2023/03/01 02:42:24;;;;;;;86.30;47.40;;;;;;;-5.88;76.36;101107.09;218368;1257;140041;-61
2023/03/01 02:47:29;;;;;;;103.50;44.40;;;;;;;-5.91;76.70;101119.58;218485;1257;139982;-59
2023/03/01 02:52:52;;;;;;;72.60;33.60;;;;;;;-5.91;76.59;101123.00;218442;1256;140365;-62
2023/03/01 02:57:59;;;;;;;89.90;42.90;;;;;;;-5.96;76.45;101124.90;219129;1257;140370;-61
2023/03/01 03:03:03;;;;;;;99.00;44.90;;;;;;;-5.92;76.44;101123.46;220099;1257;140237;-63
2023/03/01 03:08:07;;;;;;;107.80;48.30;;;;;;;-5.91;76.51;101120.27;218218;1256;140893;-63
2023/03/01 03:13:14;;;;;;;99.60;45.30;;;;;;;-5.91;76.63;101116.12;220378;1257;139739;-64
2023/03/01 03:18:17;;;;;;;91.50;44.80;;;;;;;-5.97;76.36;101110.62;220399;1257;140389;-64
2023/03/01 03:23:23;;;;;;;87.50;41.30;;;;;;;-6.01;76.35;101111.52;220458;1257;140383;-64
2023/03/01 03:28:26;;;;;;;79.50;39.80;;;;;;;-6.03;76.52;101112.16;220401;1256;141501;-64
2023/03/01 03:33:29;;;;;;;73.20;31.90;;;;;;;-6.01;76.58;101116.23;219918;1257;140465;-63
2023/03/01 03:38:32;;;;;;;104.50;49.20;;;;;;;-6.03;76.42;101124.62;218898;1257;140797;-61
2023/03/01 03:43:38;;;;;;;105.70;44.50;;;;;;;-5.98;76.37;101127.13;217735;1257;140923;-62
2023/03/01 03:48:45;;;;;;;113.30;51.00;;;;;;;-5.97;76.30;101120.64;218124;1257;139999;-61
2023/03/01 03:53:48;;;;;;;98.60;46.50;;;;;;;-6.01;76.49;101113.23;218045;1259;139654;-61
2023/03/01 03:58:52;;;;;;;82.70;37.70;;;;;;;-6.09;76.40;101109.09;217788;1259;139579;-61
2023/03/01 04:03:55;;;;;;;83.50;44.00;;;;;;;-6.17;76.73;101102.29;217543;1256;139645;-61
2023/03/01 04:09:02;;;;;;;70.50;34.50;;;;;;;-6.20;77.06;101108.77;217845;1257;161777;-60
2023/03/01 04:14:05;;;;;;;73.30;37.40;;;;;;;-6.23;77.18;101110.11;217875;1259;139648;-63
2023/03/01 04:19:09;;;;;;;88.50;44.40;;;;;;;-6.24;77.00;101109.48;218050;1256;140223;-62
2023/03/01 04:24:12;;;;;;;88.50;41.50;;;;;;;-6.20;77.02;101116.71;218782;1256;141708;-63
2023/03/01 04:29:15;;;;;;;96.50;46.90;;;;;;;-6.16;76.98;101119.21;218210;1257;139385;-63
2023/03/01 04:34:16;;;;;;;89.50;43.20;;;;;;;-6.14;76.99;101113.06;217787;1256;140020;-63
2023/03/01 04:39:19;;;;;;;64.90;29.80;;;;;;;-6.20;76.84;101108.20;218391;1257;140529;-63
2023/03/01 04:44:22;;;;;;;77.00;38.80;;;;;;;-6.29;77.12;101102.05;218513;1257;140825;-63
2023/03/01 04:49:25;;;;;;;63.30;29.40;;;;;;;-6.37;77.07;101094.71;218228;1257;140088;-62
2023/03/01 04:54:29;;;;;;;89.10;41.80;;;;;;;-6.40;77.10;101086.61;218889;1260;140296;-62
2023/03/01 04:59:31;;;;;;;80.60;38.20;;;;;;;-6.36;77.02;101088.48;219615;1257;140590;-61
2023/03/01 05:04:34;;;;;;;84.70;42.30;;;;;;;-6.33;76.93;101089.81;219453;1257;140559;-61
2023/03/01 05:09:38;;;;;;;78.90;41.20;;;;;;;-6.30;77.40;101087.92;219068;1259;139908;-62
2023/03/01 05:14:41;;;;;;;83.00;42.90;;;;;;;-6.30;77.27;101093.09;220581;1257;140265;-61
2023/03/01 05:19:46;;;;;;;109.50;46.60;;;;;;;-6.28;77.46;101093.28;220526;1257;140376;-63
2023/03/01 05:24:49;;;;;;;111.50;46.60;;;;;;;-6.29;77.03;101085.23;220405;1256;141465;-63
2023/03/01 05:29:52;;;;;;;88.70;42.20;;;;;;;-6.30;77.25;101091.89;220301;1257;140090;-63
2023/03/01 05:34:54;;;;;;;118.80;50.60;;;;;;;-6.32;77.25;101103.06;218832;1260;140830;-62
2023/03/01 05:39:57;;;;;;;96.70;41.80;;;;;;;-6.23;77.30;101099.03;218779;1260;140824;-61
2023/03/01 05:45:00;;;;;;;97.30;45.10;;;;;;;-6.14;77.16;101081.20;219534;1256;140677;-63
2023/03/01 05:50:03;;;;;;;99.40;45.70;;;;;;;-6.09;77.36;101077.59;218056;1257;139455;-62
2023/03/01 05:55:06;;;;;;;120.70;77.90;;;;;;;-5.95;77.83;101073.27;218424;1256;140086;-61
2023/03/01 06:00:11;;;;;;;106.30;54.80;;;;;;;-5.84;77.80;101065.39;218159;1259;140743;-61
2023/03/01 06:05:14;;;;;;;95.20;46.00;;;;;;;-5.74;77.92;101050.07;218139;1258;140816;-62
2023/03/01 06:10:19;;;;;;;97.30;49.80;;;;;;;-5.57;77.86;101053.81;217971;1260;140687;-62
2023/03/01 06:15:24;;;;;;;100.80;52.80;;;;;;;-5.38;77.89;101047.73;218061;1259;140608;-62
2023/03/01 06:20:29;;;;;;;105.90;53.90;;;;;;;-5.25;78.21;101050.30;217884;1257;139707;-63
2023/03/01 06:25:33;;;;;;;130.10;57.30;;;;;;;-5.08;78.42;101057.14;218091;1259;140073;-61
2023/03/01 06:30:35;;;;;;;122.20;57.90;;;;;;;-4.91;78.43;101066.10;218529;1257;140755;-62
2023/03/01 06:35:39;;;;;;;123.20;53.50;;;;;;;-4.78;78.65;101066.41;218190;1260;139874;-63
2023/03/01 06:40:44;;;;;;;125.30;57.40;;;;;;;-4.63;78.65;101072.85;218051;1259;139992;-62
2023/03/01 06:45:47;;;;;;;111.10;50.80;;;;;;;-4.39;78.62;101088.70;219176;1256;141244;-62
2023/03/01 06:50:50;;;;;;;110.40;52.10;;;;;;;-4.13;78.59;101101.63;217935;1260;140444;-63
2023/03/01 06:56:02;;;;;;;105.90;57.50;;;;;;;-3.86;78.83;101104.73;219279;1260;140283;-62
2023/03/01 07:01:07;;;;;;;113.00;55.00;;;;;;;-3.62;78.71;101099.37;218224;1257;140330;-61
2023/03/01 07:06:09;;;;;;;109.90;54.50;;;;;;;-3.42;78.83;101096.56;219890;1259;140915;-61
2023/03/01 07:11:12;;;;;;;96.80;49.20;;;;;;;-3.22;78.63;101092.74;218656;1256;140478;-62
2023/03/01 07:16:16;;;;;;;108.90;53.70;;;;;;;-2.92;78.45;101098.89;219537;1256;140147;-63
2023/03/01 07:21:18;;;;;;;99.40;53.50;;;;;;;-2.38;78.73;101083.93;220480;1256;140420;-62
2023/03/01 07:26:21;;;;;;;84.30;46.10;;;;;;;-1.41;78.77;101071.84;220287;1256;140424;-61
2023/03/01 07:31:27;;;;;;;75.50;41.30;;;;;;;-0.25;77.98;101069.54;219628;1261;142682;-61
2023/03/01 07:36:31;;;;;;;78.50;44.20;;;;;;;0.92;77.47;101064.69;219886;1260;141176;-62
2023/03/01 07:41:36;;;;;;;65.00;36.30;;;;;;;1.93;76.13;101063.50;219400;1257;139472;-65
2023/03/01 07:46:38;;;;;;;74.90;42.10;;;;;;;2.57;75.40;101063.72;219371;1257;139485;-64
2023/03/01 07:51:42;;;;;;;65.30;34.30;;;;;;;3.12;74.68;101063.16;217753;1257;140153;-65
2023/03/01 07:56:46;;;;;;;64.10;33.90;;;;;;;3.42;73.77;101063.23;218843;1257;143260;-63
2023/03/01 08:01:50;;;;;;;72.00;35.00;;;;;;;3.70;73.14;101063.30;217666;1260;162012;-66
2023/03/01 08:06:55;;;;;;;58.60;32.70;;;;;;;3.84;72.66;101065.08;217522;1258;140224;-66
2023/03/01 08:11:59;;;;;;;64.80;32.80;;;;;;;3.75;72.04;101064.89;217920;1260;139776;-62
2023/03/01 08:17:02;;;;;;;49.90;28.60;;;;;;;3.62;71.59;101061.70;218156;1260;139500;-60
2023/03/01 08:22:06;;;;;;;51.40;27.80;;;;;;;3.52;71.17;101059.53;218356;1259;139604;-60
2023/03/01 08:27:09;;;;;;;57.20;29.80;;;;;;;3.44;71.18;101055.09;218170;1260;139726;-62
2023/03/01 08:32:12;;;;;;;64.40;31.50;;;;;;;3.51;70.94;101054.61;217866;1258;140156;-63
2023/03/01 08:37:15;;;;;;;49.50;29.40;;;;;;;3.41;70.47;101055.93;217555;1260;140092;-61
2023/03/01 08:42:19;;;;;;;56.30;32.60;;;;;;;3.38;70.37;101053.77;218329;1260;139670;-64
2023/03/01 08:47:22;;;;;;;57.90;29.30;;;;;;;3.44;70.26;101053.52;219166;1257;139682;-62
2023/03/01 08:52:26;;;;;;;46.50;28.40;;;;;;;3.49;69.82;101049.33;219091;1257;139460;-64
2023/03/01 08:57:30;;;;;;;54.80;28.50;;;;;;;3.57;69.61;101037.05;217918;1257;140216;-64
2023/03/01 09:02:34;;;;;;;54.00;30.30;;;;;;;3.76;69.39;101036.50;217919;1257;140084;-62
2023/03/01 09:07:38;;;;;;;44.00;23.00;;;;;;;3.96;69.06;101025.86;219317;1256;139510;-63
2023/03/01 09:12:41;;;;;;;44.30;23.30;;;;;;;4.05;68.63;101012.33;219612;1257;140026;-63
2023/03/01 09:17:44;;;;;;;37.50;21.00;;;;;;;4.15;67.91;101019.60;220371;1257;139841;-65
2023/03/01 09:22:47;;;;;;;45.30;22.40;;;;;;;4.21;67.71;101023.19;220447;1257;142989;-65
2023/03/01 09:27:52;;;;;;;40.60;21.70;;;;;;;4.27;67.53;101029.73;220381;1257;139579;-65
2023/03/01 09:32:56;;;;;;;30.60;15.90;;;;;;;4.42;67.44;101034.50;218506;1257;141108;-63
2023/03/01 09:37:59;;;;;;;45.10;26.20;;;;;;;4.63;67.36;101036.14;218297;1258;139745;-64
2023/03/01 09:43:30;;;;;;;39.50;20.70;;;;;;;4.87;66.87;101035.05;218949;1258;139673;-64
2023/03/01 09:48:43;;;;;;;46.90;22.90;;;;;;;5.06;66.77;101037.05;217728;1257;139215;-65
2023/03/01 09:53:45;;;;;;;41.20;21.90;;;;;;;5.15;66.08;101031.33;218413;1257;139673;-66
2023/03/01 09:58:59;;;;;;;27.50;17.90;;;;;;;5.29;66.01;101026.40;218710;1257;140517;-63
2023/03/01 10:04:27;;;;;;;37.10;19.30;;;;;;;5.41;65.44;101024.52;218787;1257;139536;-64
2023/03/01 10:09:35;;;;;;;36.70;18.80;;;;;;;5.42;64.83;101017.95;218140;1258;141598;-66
2023/03/01 10:15:15;;;;;;;39.50;22.40;;;;;;;5.31;63.82;101014.77;217443;1257;139861;-65
2023/03/01 10:20:23;;;;;;;30.10;16.50;;;;;;;5.35;64.02;101010.39;218529;1257;140201;-63
2023/03/01 10:26:01;;;;;;;28.30;16.60;;;;;;;5.54;64.49;101009.13;218475;1257;139390;-67
2023/03/01 10:31:05;;;;;;;;;;;;;;;5.62;63.92;101006.95;217656;1260;139873;-64
2023/03/01 10:36:10;;;;;;;48.70;18.30;;;;;;;5.64;63.52;101000.08;218100;1257;127622;-63
2023/03/01 10:41:13;;;;;;;33.80;17.20;;;;;;;5.77;63.54;100999.73;218221;1258;139485;-62
2023/03/01 10:46:30;;;;;;;28.60;14.00;;;;;;;5.90;63.28;100995.89;217679;1257;138850;-65
2023/03/01 10:51:33;;;;;;;;;;;;;;;6.05;63.14;100987.51;218766;1260;139861;-66
2023/03/01 10:56:54;;;;;;;29.50;16.70;;;;;;;6.17;62.88;100988.67;217890;1257;125531;-65
2023/03/01 11:02:25;;;;;;;29.20;17.90;;;;;;;6.31;62.52;100981.34;220241;1256;138956;-65
2023/03/01 11:07:29;;;;;;;28.00;15.90;;;;;;;6.49;62.21;100966.39;218153;1257;141444;-64
2023/03/01 11:12:33;;;;;;;29.70;14.20;;;;;;;6.68;61.96;100965.58;219260;1256;139522;-65
2023/03/01 11:17:38;;;;;;;27.50;15.90;;;;;;;6.80;61.56;100958.66;220260;1256;140481;-67
2023/03/01 11:23:01;;;;;;;30.20;15.20;;;;;;;6.91;61.46;100947.88;219088;1257;140455;-65
2023/03/01 11:28:05;;;;;;;25.00;15.20;;;;;;;6.91;60.82;100941.31;219828;1256;140876;-64
2023/03/01 11:33:08;;;;;;;21.60;14.30;;;;;;;6.90;59.90;100943.50;218870;1257;139961;-65
2023/03/01 11:38:25;;;;;;;23.40;15.70;;;;;;;6.86;59.12;100941.92;217628;1257;139594;-64
2023/03/01 11:43:32;;;;;;;23.20;13.50;;;;;;;6.78;58.89;100938.78;217805;1256;139671;-64
2023/03/01 11:49:01;;;;;;;31.60;13.90;;;;;;;6.80;58.74;100931.46;218335;1257;140423;-65
2023/03/01 11:54:19;;;;;;;34.90;19.00;;;;;;;6.97;58.93;100924.48;217997;1257;139820;-64
2023/03/01 11:59:41;;;;;;;24.20;15.80;;;;;;;7.08;58.71;100928.77;218418;1256;139847;-66
2023/03/01 12:05:03;;;;;;;25.00;15.00;;;;;;;7.18;58.64;100918.57;218119;1257;139504;-65
2023/03/01 12:10:28;;;;;;;28.30;15.30;;;;;;;7.27;58.24;100920.77;218310;1256;139839;-64
2023/03/01 12:15:59;;;;;;;22.10;14.40;;;;;;;7.34;57.90;100918.64;218104;1256;139532;-64
2023/03/01 12:21:43;;;;;;;30.60;16.00;;;;;;;7.26;57.28;100907.08;217813;1260;140498;-65
2023/03/01 12:27:08;;;;;;;26.20;15.80;;;;;;;7.16;57.40;100900.66;217658;1257;140139;-65
2023/03/01 12:32:31;;;;;;;25.80;14.60;;;;;;;7.18;57.12;100893.55;217605;1257;139652;-66
2023/03/01 12:37:56;;;;;;;23.10;13.50;;;;;;;7.21;56.81;100886.75;217517;1260;140094;-66
2023/03/01 12:43:00;;;;;;;20.10;10.40;;;;;;;7.24;56.24;100875.84;219121;1257;140528;-66
2023/03/01 12:48:25;;;;;;;25.40;12.90;;;;;;;7.29;56.38;100875.52;218673;1256;141434;-64
2023/03/01 12:53:32;;;;;;;23.40;12.70;;;;;;;7.34;55.64;100859.92;219275;1256;139902;-66
2023/03/01 12:58:54;;;;;;;18.50;11.70;;;;;;;7.39;55.73;100856.84;218569;1256;139902;-66
2023/03/01 13:04:18;;;;;;;17.40;10.40;;;;;;;7.38;55.20;100851.23;217909;1257;141057;-64
2023/03/01 13:09:51;;;;;;;26.10;12.90;;;;;;;7.37;55.01;100847.10;218691;1257;141327;-64
2023/03/01 13:14:55;;;;;;;18.20;10.00;;;;;;;7.39;55.04;100852.55;220205;1256;139897;-67
2023/03/01 13:19:58;;;;;;;14.60;9.90;;;;;;;7.46;55.12;100856.48;220093;1256;139774;-65
2023/03/01 13:25:18;;;;;;;20.00;10.20;;;;;;;7.48;54.49;100860.20;219418;1256;139729;-67
2023/03/01 13:30:34;;;;;;;15.20;9.40;;;;;;;7.47;54.06;100859.34;218544;1257;139923;-69
2023/03/01 13:35:44;;;;;;;15.30;9.50;;;;;;;7.31;53.58;100860.80;217932;1256;138999;-68
2023/03/01 13:40:51;;;;;;;18.80;10.20;;;;;;;7.22;53.84;100853.29;218740;1257;140491;-67
2023/03/01 13:45:55;;;;;;;22.20;10.80;;;;;;;7.22;53.80;100849.55;217642;1257;139868;-65
2023/03/01 13:51:04;;;;;;;16.90;9.20;;;;;;;7.24;54.22;100860.09;218322;1257;139843;-63
2023/03/01 13:56:12;;;;;;;16.20;9.60;;;;;;;7.27;54.18;100856.95;218046;1260;139228;-70
2023/03/01 14:01:23;;;;;;;20.40;9.90;;;;;;;7.28;54.23;100856.23;218938;1256;140428;-68
2023/03/01 14:06:32;;;;;;;16.30;10.30;;;;;;;7.27;54.07;100859.13;218367;1256;139203;-66
2023/03/01 14:12:14;;;;;;;17.40;11.40;;;;;;;7.21;54.05;100850.69;217568;1259;139462;-68
2023/03/01 14:17:35;;;;;;;19.60;11.60;;;;;;;7.16;53.99;100845.87;218338;1257;139350;-68
2023/03/01 14:22:44;;;;;;;22.30;12.50;;;;;;;7.05;53.76;100831.59;218271;1257;150074;-67
2023/03/01 14:28:17;;;;;;;18.00;11.10;;;;;;;7.02;54.16;100822.98;218247;1256;139765;-65
2023/03/01 14:33:27;;;;;;;15.60;10.50;;;;;;;7.02;54.15;100807.37;219002;1259;140325;-66
2023/03/01 14:38:47;;;;;;;14.40;10.20;;;;;;;6.98;54.08;100798.92;217759;1256;139527;-70
2023/03/01 14:44:12;;;;;;;18.10;11.50;;;;;;;6.85;53.87;100796.71;219715;1257;140429;-64
2023/03/01 14:49:21;;;;;;;15.90;10.00;;;;;;;6.84;53.81;100803.59;217504;1260;139395;-65
2023/03/01 14:54:45;;;;;;;18.00;10.10;;;;;;;6.79;53.57;100809.70;218929;1257;139676;-64
2023/03/01 14:59:55;;;;;;;14.40;9.80;;;;;;;6.75;53.80;100811.58;217747;1260;140914;-65
2023/03/01 15:05:03;;;;;;;45.60;25.20;;;;;;;6.67;53.62;100808.60;220242;1256;139618;-66
2023/03/01 15:10:27;;;;;;;16.10;8.70;;;;;;;6.52;53.32;100803.16;219428;1258;140132;-66
2023/03/01 15:15:45;;;;;;;13.20;8.00;;;;;;;6.39;53.21;100801.67;220232;1256;140016;-65
2023/03/01 15:20:50;;;;;;;14.00;8.80;;;;;;;6.34;53.36;100798.79;219591;1256;139379;-66
2023/03/01 15:25:58;;;;;;;11.20;7.00;;;;;;;6.30;53.28;100796.67;220420;1257;139350;-63
2023/03/01 15:31:24;;;;;;;16.50;8.40;;;;;;;6.22;53.13;100795.13;218791;1256;139606;-65
2023/03/01 15:36:44;;;;;;;18.40;8.50;;;;;;;6.07;53.53;100790.41;219000;1256;139715;-65
2023/03/01 15:41:48;;;;;;;12.70;9.00;;;;;;;5.91;53.50;100784.85;219532;1256;140076;-65
2023/03/01 15:46:52;;;;;;;12.00;7.80;;;;;;;5.74;53.68;100778.63;217665;1259;139297;-65
2023/03/01 15:51:55;;;;;;;19.10;9.40;;;;;;;5.56;54.14;100785.41;218794;1256;139826;-65
2023/03/01 15:56:59;;;;;;;13.70;7.20;;;;;;;5.35;54.74;100790.48;217861;1259;140398;-65
2023/03/01 16:02:13;;;;;;;15.90;9.30;;;;;;;5.11;55.30;100788.77;218133;1256;139405;-66
2023/03/01 16:07:19;;;;;;;14.50;7.80;;;;;;;4.85;55.66;100781.13;217600;1256;140207;-65
2023/03/01 16:12:24;;;;;;;12.90;8.30;;;;;;;4.59;55.89;100779.12;218341;1256;139575;-64
2023/03/01 16:17:29;;;;;;;17.30;8.50;;;;;;;4.33;56.41;100784.55;216746;1257;1328508;-66
2023/03/01 16:22:33;;;;;;;11.20;9.30;;;;;;;4.04;56.90;100786.60;218014;1256;140573;-66
2023/03/01 16:27:43;;;;;;;13.10;7.00;;;;;;;3.75;57.44;100795.63;217838;1257;139216;-68
2023/03/01 16:32:54;;;;;;;13.50;7.50;;;;;;;3.46;58.01;100794.98;218179;1257;140426;-64
2023/03/01 16:38:00;;;;;;;17.20;8.40;;;;;;;3.21;58.55;100803.65;217821;1256;139757;-65
2023/03/01 16:43:07;;;;;;;12.10;8.60;;;;;;;2.98;58.79;100805.34;218651;1256;140241;-67
2023/03/01 16:48:13;;;;;;;14.00;7.50;;;;;;;2.77;59.18;100792.44;218200;1260;139004;-65
2023/03/01 16:53:16;;;;;;;16.70;9.20;;;;;;;2.54;59.33;100792.17;218601;1256;140082;-67
2023/03/01 16:58:20;;;;;;;15.80;10.40;;;;;;;2.27;59.54;100785.47;219663;1256;139863;-66
2023/03/01 17:03:26;;;;;;;19.70;9.70;;;;;;;2.05;59.76;100782.88;220110;1256;141094;-66
2023/03/01 17:08:31;;;;;;;14.20;8.40;;;;;;;1.84;60.03;100787.38;220336;1256;139917;-64
2023/03/01 17:13:36;;;;;;;22.40;10.00;;;;;;;1.66;60.69;100790.20;220415;1257;139941;-65
2023/03/01 17:18:40;;;;;;;14.80;8.60;;;;;;;1.55;61.17;100789.84;219834;1256;139627;-67
2023/03/01 17:23:49;;;;;;;23.30;8.70;;;;;;;1.46;61.55;100793.12;218615;1257;140385;-65
2023/03/01 17:28:58;;;;;;;20.80;11.30;;;;;;;1.30;62.00;100801.95;217798;1259;139260;-65
2023/03/01 17:34:06;;;;;;;21.40;11.80;;;;;;;1.11;62.31;100801.23;218105;1260;141425;-62
2023/03/01 17:39:10;;;;;;;24.10;13.30;;;;;;;0.94;62.89;100803.89;217548;1257;139763;-66
2023/03/01 17:44:14;;;;;;;24.40;13.60;;;;;;;0.78;62.60;100808.12;218736;1256;142988;-65
2023/03/01 17:49:17;;;;;;;32.30;16.00;;;;;;;0.60;63.00;100801.37;217490;1257;141184;-65
2023/03/01 17:54:20;;;;;;;29.50;13.10;;;;;;;0.50;63.34;100797.27;217992;1256;139795;-62
2023/03/01 17:59:30;;;;;;;26.10;13.30;;;;;;;0.48;63.80;100790.13;217934;1256;141495;-62
2023/03/01 18:04:33;;;;;;;32.10;14.40;;;;;;;0.42;64.11;100780.66;217385;1257;139059;-65
2023/03/01 18:09:36;;;;;;;25.00;13.00;;;;;;;0.27;64.84;100782.27;218073;1259;229423;-66
2023/03/01 18:14:40;;;;;;;26.50;12.70;;;;;;;0.03;65.06;100780.67;217341;1256;139431;-68
2023/03/01 18:19:43;;;;;;;43.80;23.80;;;;;;;-0.21;65.71;100780.95;218122;1256;139626;-62
2023/03/01 18:24:46;;;;;;;39.40;20.90;;;;;;;-0.38;65.84;100781.98;219085;1259;139499;-62
2023/03/01 18:29:48;;;;;;;36.10;20.20;;;;;;;-0.48;66.26;100778.33;217406;1257;140008;-65
2023/03/01 18:34:51;;;;;;;38.10;21.50;;;;;;;-0.57;66.54;100772.20;218087;1260;139610;-64
2023/03/01 18:39:53;;;;;;;37.80;18.70;;;;;;;-0.65;67.17;100770.86;218388;1257;140442;-62
2023/03/01 18:44:57;;;;;;;34.80;19.30;;;;;;;-0.62;67.19;100768.15;218868;1256;152354;-63
2023/03/01 18:49:59;;;;;;;30.80;18.80;;;;;;;-0.58;67.60;100768.77;217887;1257;140294;-64
2023/03/01 18:55:01;;;;;;;30.80;19.80;;;;;;;-0.54;67.85;100774.73;219159;1256;140255;-63
2023/03/01 19:00:04;;;;;;;41.90;25.80;;;;;;;-0.56;67.85;100778.41;218674;1256;141028;-65
2023/03/01 19:05:07;;;;;;;52.90;28.60;;;;;;;-0.57;68.33;100785.95;220231;1257;139791;-63
2023/03/01 19:10:10;;;;;;;62.90;30.50;;;;;;;-0.60;68.37;100789.41;220265;1256;139628;-63
2023/03/01 19:15:15;;;;;;;58.50;27.80;;;;;;;-0.65;68.45;100789.66;217707;1257;139722;-61
2023/03/01 19:20:19;;;;;;;58.20;30.80;;;;;;;-0.64;68.63;100791.02;220202;1256;140151;-61
2023/03/01 19:25:23;;;;;;;79.90;35.00;;;;;;;-0.70;68.38;100795.00;218846;1256;140126;-63
2023/03/01 19:30:26;;;;;;;83.70;35.30;;;;;;;-0.82;68.66;100802.58;218327;1256;140612;-60
2023/03/01 19:35:28;;;;;;;94.80;41.80;;;;;;;-0.91;68.93;100806.64;218884;1256;140219;-61
2023/03/01 19:40:31;;;;;;;87.10;41.50;;;;;;;-1.01;69.15;100818.17;219814;1256;141133;-63
2023/03/01 19:45:33;;;;;;;94.10;47.40;;;;;;;-1.13;69.43;100820.98;219144;1257;140599;-63
2023/03/01 19:50:37;;;;;;;104.00;47.70;;;;;;;-1.18;69.84;100822.65;217640;1260;140080;-61
2023/03/01 19:55:42;;;;;;;88.70;42.50;;;;;;;-1.22;69.77;100823.70;218527;1256;141062;-60
2023/03/01 20:00:46;;;;;;;87.90;41.00;;;;;;;-1.24;69.79;100825.28;217582;1257;140005;-60
2023/03/01 20:05:51;;;;;;;79.30;39.20;;;;;;;-1.28;70.00;100824.06;218859;1260;141248;-61
2023/03/01 20:11:08;;;;;;;49.30;29.50;;;;;;;-1.33;70.37;100825.64;218031;1257;139479;-60
2023/03/01 20:16:16;;;;;;;49.70;25.40;;;;;;;-1.41;70.22;100825.52;217413;1257;140931;-61
2023/03/01 20:21:22;;;;;;;58.20;32.50;;;;;;;-1.53;70.37;100820.98;218085;1256;139742;-64
2023/03/01 20:26:28;;;;;;;59.60;31.30;;;;;;;-1.59;70.92;100816.80;218401;1257;204765;-61
2023/03/01 20:31:31;;;;;;;56.70;27.20;;;;;;;-1.65;70.95;100817.83;217595;1257;139554;-60
2023/03/01 20:36:36;;;;;;;56.90;31.70;;;;;;;-1.65;71.10;100823.36;218956;1256;140084;-62
2023/03/01 20:41:41;;;;;;;90.40;44.40;;;;;;;-1.63;70.88;100820.43;218009;1256;140047;-62
2023/03/01 20:46:44;;;;;;;83.60;44.50;;;;;;;-1.71;71.16;100816.70;217852;1257;139815;-62
2023/03/01 20:51:48;;;;;;;67.40;36.30;;;;;;;-1.78;71.57;100823.53;218523;1256;140272;-59
2023/03/01 20:56:51;;;;;;;63.90;33.80;;;;;;;-1.80;71.64;100826.48;220506;1260;140060;-62
2023/03/01 21:01:55;;;;;;;60.10;28.20;;;;;;;-1.76;71.64;100828.96;220384;1256;140486;-61
2023/03/01 21:06:58;;;;;;;82.50;43.10;;;;;;;-1.73;71.59;100833.80;219940;1257;140811;-62
2023/03/01 21:12:03;;;;;;;71.70;37.90;;;;;;;-1.68;71.69;100826.56;219905;1256;140113;-61
2023/03/01 21:17:11;;;;;;;91.90;47.20;;;;;;;-1.70;71.81;100825.70;218378;1257;140289;-61
2023/03/01 21:22:15;;;;;;;77.50;37.80;;;;;;;-1.76;72.05;100822.88;217655;1256;140192;-61
2023/03/01 21:27:20;;;;;;;73.80;36.00;;;;;;;-1.90;72.11;100819.05;218839;1257;139900;-63
2023/03/01 21:32:23;;;;;;;77.30;38.50;;;;;;;-2.03;72.39;100811.20;217750;1256;139603;-64
2023/03/01 21:37:26;;;;;;;99.80;46.50;;;;;;;-2.14;72.61;100807.77;218387;1257;225339;-64
2023/03/01 21:42:35;;;;;;;98.40;46.90;;;;;;;-2.17;72.71;100806.36;217860;1257;139444;-62
2023/03/01 21:47:39;;;;;;;109.80;50.40;;;;;;;-2.17;72.69;100809.14;219023;1260;141635;-62
2023/03/01 21:52:42;;;;;;;128.20;58.50;;;;;;;-2.13;72.86;100801.77;217682;1256;140044;-63
2023/03/01 21:57:45;;;;;;;128.10;60.30;;;;;;;-2.10;72.94;100805.15;217973;1257;140737;-61
2023/03/01 22:02:49;;;;;;;139.90;65.00;;;;;;;-2.07;73.41;100809.15;218239;1256;140435;-65
2023/03/01 22:07:54;;;;;;;137.00;58.80;;;;;;;-2.02;73.53;100801.95;218305;1256;139997;-63
2023/03/01 22:12:58;;;;;;;123.90;58.00;;;;;;;-2.08;73.04;100790.95;218361;1256;140569;-61
2023/03/01 22:18:00;;;;;;;138.10;62.40;;;;;;;-2.14;73.42;100787.20;217612;1260;140569;-61
2023/03/01 22:23:03;;;;;;;353.30;125.60;;;;;;;-2.11;73.61;100792.35;218775;1256;139661;-62
2023/03/01 22:28:07;;;;;;;201.00;76.80;;;;;;;-2.06;73.96;100792.49;218277;1256;140094;-61
2023/03/01 22:33:11;;;;;;;198.60;75.20;;;;;;;-2.15;73.44;100788.21;218991;1259;139546;-60
2023/03/01 22:38:14;;;;;;;188.20;76.60;;;;;;;-2.28;73.58;100788.08;220398;1257;141415;-61
2023/03/01 22:43:17;;;;;;;159.40;68.70;;;;;;;-2.36;73.68;100788.71;219744;1259;141656;-60
2023/03/01 22:48:21;;;;;;;135.20;61.90;;;;;;;-2.38;73.71;100793.02;220343;1257;140887;-61
2023/03/01 22:53:24;;;;;;;134.70;65.20;;;;;;;-2.38;73.78;100787.68;219699;1257;141827;-65